sensor_id;sensor_type;location;lat;lon;timestamp;P1;durP1;ratioP1;P2;durP2;ratioP2
37063;SDS011;23211;53.912;9.138;2022-12-07T00:01:48;8.02;;;1.75;;
37063;SDS011;23211;53.912;9.138;2022-12-07T00:04:16;10.32;;;2.20;;
37063;SDS011;23211;53.912;9.138;2022-12-07T00:07:02;4.43;;;1.60;;
37063;SDS011;23211;53.912;9.138;2022-12-07T00:09:49;6.38;;;1.73;;
37063;SDS011;23211;53.912;9.138;2022-12-07T00:12:35;7.20;;;1.95;;
37063;SDS011;23211;53.912;9.138;2022-12-07T00:15:21;4.15;;;1.67;;
37063;SDS011;23211;53.912;9.138;2022-12-07T00:18:07;7.13;;;1.40;;
37063;SDS011;23211;53.912;9.138;2022-12-07T00:20:52;9.98;;;1.15;;
37063;SDS011;23211;53.912;9.138;2022-12-07T00:23:38;8.38;;;1.10;;
37063;SDS011;23211;53.912;9.138;2022-12-07T00:26:26;6.95;;;0.70;;
37063;SDS011;23211;53.912;9.138;2022-12-07T00:29:18;1.52;;;0.60;;
37063;SDS011;23211;53.912;9.138;2022-12-07T00:32:05;2.90;;;0.65;;
37063;SDS011;23211;53.912;9.138;2022-12-07T00:34:51;5.40;;;0.60;;
37063;SDS011;23211;53.912;9.138;2022-12-07T00:37:37;3.03;;;0.50;;
37063;SDS011;23211;53.912;9.138;2022-12-07T00:40:23;3.97;;;0.80;;
37063;SDS011;23211;53.912;9.138;2022-12-07T00:43:08;4.90;;;0.75;;
37063;SDS011;23211;53.912;9.138;2022-12-07T00:45:55;3.50;;;0.57;;
37063;SDS011;23211;53.912;9.138;2022-12-07T00:48:41;3.30;;;0.50;;
37063;SDS011;23211;53.912;9.138;2022-12-07T00:51:27;5.88;;;0.60;;
37063;SDS011;23211;53.912;9.138;2022-12-07T00:54:13;3.28;;;0.60;;
37063;SDS011;23211;53.912;9.138;2022-12-07T00:56:58;6.20;;;0.60;;
37063;SDS011;23211;53.912;9.138;2022-12-07T00:59:44;1.80;;;0.60;;
37063;SDS011;23211;53.912;9.138;2022-12-07T01:02:30;5.35;;;0.75;;
37063;SDS011;23211;53.912;9.138;2022-12-07T01:05:16;2.05;;;0.70;;
37063;SDS011;23211;53.912;9.138;2022-12-07T01:08:02;4.50;;;0.93;;
37063;SDS011;23211;53.912;9.138;2022-12-07T01:10:48;7.38;;;0.70;;
37063;SDS011;23211;53.912;9.138;2022-12-07T01:13:35;7.05;;;0.73;;
37063;SDS011;23211;53.912;9.138;2022-12-07T01:16:21;5.30;;;0.85;;
37063;SDS011;23211;53.912;9.138;2022-12-07T01:19:08;8.13;;;1.10;;
37063;SDS011;23211;53.912;9.138;2022-12-07T01:21:54;5.32;;;0.70;;
37063;SDS011;23211;53.912;9.138;2022-12-07T01:24:40;4.88;;;0.88;;
37063;SDS011;23211;53.912;9.138;2022-12-07T01:27:26;8.02;;;0.90;;
37063;SDS011;23211;53.912;9.138;2022-12-07T01:30:12;11.18;;;0.95;;
37063;SDS011;23211;53.912;9.138;2022-12-07T01:32:58;6.85;;;0.88;;
37063;SDS011;23211;53.912;9.138;2022-12-07T01:35:44;6.13;;;1.00;;
37063;SDS011;23211;53.912;9.138;2022-12-07T01:38:30;6.90;;;1.10;;
37063;SDS011;23211;53.912;9.138;2022-12-07T01:41:17;6.57;;;1.27;;
37063;SDS011;23211;53.912;9.138;2022-12-07T01:47:07;7.28;;;1.17;;
37063;SDS011;23211;53.912;9.138;2022-12-07T01:49:53;7.40;;;1.52;;
37063;SDS011;23211;53.912;9.138;2022-12-07T01:52:38;5.32;;;1.10;;
37063;SDS011;23211;53.912;9.138;2022-12-07T01:55:27;11.38;;;1.33;;
37063;SDS011;23211;53.912;9.138;2022-12-07T01:58:13;3.65;;;0.90;;
37063;SDS011;23211;53.912;9.138;2022-12-07T02:01:00;5.25;;;0.82;;
37063;SDS011;23211;53.912;9.138;2022-12-07T02:03:46;6.25;;;1.58;;
37063;SDS011;23211;53.912;9.138;2022-12-07T02:06:32;10.18;;;1.50;;
37063;SDS011;23211;53.912;9.138;2022-12-07T02:09:20;6.82;;;1.30;;
37063;SDS011;23211;53.912;9.138;2022-12-07T02:12:06;7.93;;;1.73;;
37063;SDS011;23211;53.912;9.138;2022-12-07T02:14:53;10.35;;;1.50;;
37063;SDS011;23211;53.912;9.138;2022-12-07T02:17:54;6.68;;;1.60;;
37063;SDS011;23211;53.912;9.138;2022-12-07T02:24:17;7.20;;;1.60;;
37063;SDS011;23211;53.912;9.138;2022-12-07T02:27:21;6.55;;;1.55;;
37063;SDS011;23211;53.912;9.138;2022-12-07T02:30:19;5.05;;;1.45;;
37063;SDS011;23211;53.912;9.138;2022-12-07T02:36:18;10.07;;;1.57;;
37063;SDS011;23211;53.912;9.138;2022-12-07T02:42:07;4.65;;;1.10;;
37063;SDS011;23211;53.912;9.138;2022-12-07T02:44:59;8.88;;;1.30;;
37063;SDS011;23211;53.912;9.138;2022-12-07T02:47:47;6.53;;;1.58;;
37063;SDS011;23211;53.912;9.138;2022-12-07T02:50:36;4.18;;;1.20;;
37063;SDS011;23211;53.912;9.138;2022-12-07T02:53:38;7.47;;;1.15;;
37063;SDS011;23211;53.912;9.138;2022-12-07T03:05:59;5.13;;;1.70;;
37063;SDS011;23211;53.912;9.138;2022-12-07T03:09:14;3.00;;;1.27;;
37063;SDS011;23211;53.912;9.138;2022-12-07T03:12:10;3.45;;;1.30;;
37063;SDS011;23211;53.912;9.138;2022-12-07T03:15:04;3.10;;;1.55;;
37063;SDS011;23211;53.912;9.138;2022-12-07T03:17:55;5.18;;;1.70;;
37063;SDS011;23211;53.912;9.138;2022-12-07T03:20:43;4.93;;;1.55;;
37063;SDS011;23211;53.912;9.138;2022-12-07T03:23:31;6.15;;;1.63;;
37063;SDS011;23211;53.912;9.138;2022-12-07T03:26:21;2.63;;;1.27;;
37063;SDS011;23211;53.912;9.138;2022-12-07T03:29:17;4.68;;;1.80;;
37063;SDS011;23211;53.912;9.138;2022-12-07T03:32:16;7.82;;;1.85;;
37063;SDS011;23211;53.912;9.138;2022-12-07T03:35:17;3.20;;;1.45;;
37063;SDS011;23211;53.912;9.138;2022-12-07T03:38:45;2.78;;;1.42;;
37063;SDS011;23211;53.912;9.138;2022-12-07T03:41:36;6.35;;;1.48;;
37063;SDS011;23211;53.912;9.138;2022-12-07T03:44:23;3.53;;;1.70;;
37063;SDS011;23211;53.912;9.138;2022-12-07T03:47:13;4.35;;;1.45;;
37063;SDS011;23211;53.912;9.138;2022-12-07T03:50:11;3.10;;;1.52;;
37063;SDS011;23211;53.912;9.138;2022-12-07T03:53:20;2.58;;;1.50;;
37063;SDS011;23211;53.912;9.138;2022-12-07T03:56:14;8.20;;;1.83;;
37063;SDS011;23211;53.912;9.138;2022-12-07T03:59:00;4.43;;;1.55;;
37063;SDS011;23211;53.912;9.138;2022-12-07T04:01:51;3.13;;;1.70;;
37063;SDS011;23211;53.912;9.138;2022-12-07T04:04:40;3.97;;;1.90;;
37063;SDS011;23211;53.912;9.138;2022-12-07T04:07:27;3.78;;;1.73;;
37063;SDS011;23211;53.912;9.138;2022-12-07T04:10:13;1.52;;;1.40;;
37063;SDS011;23211;53.912;9.138;2022-12-07T04:12:59;5.75;;;1.83;;
37063;SDS011;23211;53.912;9.138;2022-12-07T04:15:45;2.72;;;1.73;;
37063;SDS011;23211;53.912;9.138;2022-12-07T04:18:31;4.20;;;2.15;;
37063;SDS011;23211;53.912;9.138;2022-12-07T04:21:16;9.70;;;2.72;;
37063;SDS011;23211;53.912;9.138;2022-12-07T04:24:03;3.45;;;1.80;;
37063;SDS011;23211;53.912;9.138;2022-12-07T04:26:49;5.47;;;1.50;;
37063;SDS011;23211;53.912;9.138;2022-12-07T04:29:35;3.25;;;1.98;;
37063;SDS011;23211;53.912;9.138;2022-12-07T04:32:21;4.53;;;1.88;;
37063;SDS011;23211;53.912;9.138;2022-12-07T04:35:07;3.35;;;1.65;;
37063;SDS011;23211;53.912;9.138;2022-12-07T04:37:54;2.75;;;1.33;;
37063;SDS011;23211;53.912;9.138;2022-12-07T04:40:39;3.17;;;1.48;;
37063;SDS011;23211;53.912;9.138;2022-12-07T04:43:25;3.75;;;1.73;;
37063;SDS011;23211;53.912;9.138;2022-12-07T04:46:11;2.63;;;1.60;;
37063;SDS011;23211;53.912;9.138;2022-12-07T04:48:57;4.07;;;1.48;;
37063;SDS011;23211;53.912;9.138;2022-12-07T04:51:44;3.95;;;1.50;;
37063;SDS011;23211;53.912;9.138;2022-12-07T04:54:30;5.32;;;1.58;;
37063;SDS011;23211;53.912;9.138;2022-12-07T04:57:16;4.72;;;1.77;;
37063;SDS011;23211;53.912;9.138;2022-12-07T05:00:02;3.13;;;1.10;;
37063;SDS011;23211;53.912;9.138;2022-12-07T05:02:48;3.13;;;0.77;;
37063;SDS011;23211;53.912;9.138;2022-12-07T05:05:33;4.93;;;1.13;;
37063;SDS011;23211;53.912;9.138;2022-12-07T05:08:19;4.50;;;0.80;;
37063;SDS011;23211;53.912;9.138;2022-12-07T05:11:06;2.13;;;0.75;;
37063;SDS011;23211;53.912;9.138;2022-12-07T05:13:53;1.75;;;0.80;;
37063;SDS011;23211;53.912;9.138;2022-12-07T05:16:39;2.92;;;1.00;;
37063;SDS011;23211;53.912;9.138;2022-12-07T05:19:26;1.88;;;0.80;;
37063;SDS011;23211;53.912;9.138;2022-12-07T05:22:12;8.52;;;0.95;;
37063;SDS011;23211;53.912;9.138;2022-12-07T05:24:58;2.05;;;0.77;;
37063;SDS011;23211;53.912;9.138;2022-12-07T05:27:44;4.18;;;1.00;;
37063;SDS011;23211;53.912;9.138;2022-12-07T05:30:30;3.00;;;0.90;;
37063;SDS011;23211;53.912;9.138;2022-12-07T05:33:16;5.35;;;1.00;;
37063;SDS011;23211;53.912;9.138;2022-12-07T05:36:02;7.32;;;1.00;;
37063;SDS011;23211;53.912;9.138;2022-12-07T05:38:50;4.22;;;1.20;;
37063;SDS011;23211;53.912;9.138;2022-12-07T05:41:36;2.88;;;0.90;;
37063;SDS011;23211;53.912;9.138;2022-12-07T05:44:44;2.47;;;0.63;;
37063;SDS011;23211;53.912;9.138;2022-12-07T05:47:31;3.22;;;0.88;;
37063;SDS011;23211;53.912;9.138;2022-12-07T05:50:17;3.10;;;0.77;;
37063;SDS011;23211;53.912;9.138;2022-12-07T05:53:03;4.57;;;0.90;;
37063;SDS011;23211;53.912;9.138;2022-12-07T05:55:49;4.65;;;1.45;;
37063;SDS011;23211;53.912;9.138;2022-12-07T05:58:34;7.35;;;2.25;;
37063;SDS011;23211;53.912;9.138;2022-12-07T06:01:39;9.90;;;2.75;;
37063;SDS011;23211;53.912;9.138;2022-12-07T06:04:27;4.47;;;1.52;;
37063;SDS011;23211;53.912;9.138;2022-12-07T06:07:15;3.05;;;1.48;;
37063;SDS011;23211;53.912;9.138;2022-12-07T06:10:02;4.47;;;1.20;;
37063;SDS011;23211;53.912;9.138;2022-12-07T06:12:48;4.25;;;1.00;;
37063;SDS011;23211;53.912;9.138;2022-12-07T06:15:36;4.38;;;0.80;;
37063;SDS011;23211;53.912;9.138;2022-12-07T06:18:22;6.18;;;1.23;;
37063;SDS011;23211;53.912;9.138;2022-12-07T06:21:08;6.88;;;2.03;;
37063;SDS011;23211;53.912;9.138;2022-12-07T06:23:54;3.53;;;1.40;;
37063;SDS011;23211;53.912;9.138;2022-12-07T06:26:40;6.55;;;1.15;;
37063;SDS011;23211;53.912;9.138;2022-12-07T06:29:27;6.50;;;1.30;;
37063;SDS011;23211;53.912;9.138;2022-12-07T06:32:13;4.40;;;1.20;;
37063;SDS011;23211;53.912;9.138;2022-12-07T06:34:59;2.38;;;0.85;;
37063;SDS011;23211;53.912;9.138;2022-12-07T06:37:45;3.55;;;1.10;;
37063;SDS011;23211;53.912;9.138;2022-12-07T06:40:31;6.00;;;1.88;;
37063;SDS011;23211;53.912;9.138;2022-12-07T06:43:17;8.75;;;1.88;;
37063;SDS011;23211;53.912;9.138;2022-12-07T06:46:02;13.95;;;2.75;;
37063;SDS011;23211;53.912;9.138;2022-12-07T06:48:48;8.13;;;2.15;;
37063;SDS011;23211;53.912;9.138;2022-12-07T06:51:34;8.77;;;2.15;;
37063;SDS011;23211;53.912;9.138;2022-12-07T06:54:21;14.50;;;1.98;;
37063;SDS011;23211;53.912;9.138;2022-12-07T06:57:07;7.88;;;1.20;;
37063;SDS011;23211;53.912;9.138;2022-12-07T06:59:53;13.45;;;2.53;;
37063;SDS011;23211;53.912;9.138;2022-12-07T07:02:39;11.93;;;2.28;;
37063;SDS011;23211;53.912;9.138;2022-12-07T07:05:25;12.15;;;1.67;;
37063;SDS011;23211;53.912;9.138;2022-12-07T07:08:11;11.55;;;3.00;;
37063;SDS011;23211;53.912;9.138;2022-12-07T07:10:57;18.50;;;3.60;;
37063;SDS011;23211;53.912;9.138;2022-12-07T07:13:44;10.85;;;2.53;;
37063;SDS011;23211;53.912;9.138;2022-12-07T07:16:30;9.30;;;2.55;;
37063;SDS011;23211;53.912;9.138;2022-12-07T07:19:16;6.68;;;2.17;;
37063;SDS011;23211;53.912;9.138;2022-12-07T07:22:02;11.73;;;1.60;;
37063;SDS011;23211;53.912;9.138;2022-12-07T07:24:48;10.82;;;1.60;;
37063;SDS011;23211;53.912;9.138;2022-12-07T07:27:34;15.95;;;1.67;;
37063;SDS011;23211;53.912;9.138;2022-12-07T07:30:20;17.52;;;1.95;;
37063;SDS011;23211;53.912;9.138;2022-12-07T07:33:06;15.00;;;1.98;;
37063;SDS011;23211;53.912;9.138;2022-12-07T07:35:52;10.85;;;1.88;;
37063;SDS011;23211;53.912;9.138;2022-12-07T07:38:38;12.48;;;1.80;;
37063;SDS011;23211;53.912;9.138;2022-12-07T07:41:24;18.80;;;1.98;;
37063;SDS011;23211;53.912;9.138;2022-12-07T07:44:10;15.00;;;1.58;;
37063;SDS011;23211;53.912;9.138;2022-12-07T07:46:56;18.60;;;1.88;;
37063;SDS011;23211;53.912;9.138;2022-12-07T07:49:42;14.55;;;2.75;;
37063;SDS011;23211;53.912;9.138;2022-12-07T07:52:28;14.48;;;2.83;;
37063;SDS011;23211;53.912;9.138;2022-12-07T07:55:13;10.10;;;1.60;;
37063;SDS011;23211;53.912;9.138;2022-12-07T07:58:00;11.95;;;1.77;;
37063;SDS011;23211;53.912;9.138;2022-12-07T08:00:46;8.25;;;1.77;;
37063;SDS011;23211;53.912;9.138;2022-12-07T08:03:32;9.40;;;1.55;;
37063;SDS011;23211;53.912;9.138;2022-12-07T08:06:18;11.35;;;2.13;;
37063;SDS011;23211;53.912;9.138;2022-12-07T08:09:04;15.27;;;3.95;;
37063;SDS011;23211;53.912;9.138;2022-12-07T08:11:51;14.20;;;2.35;;
37063;SDS011;23211;53.912;9.138;2022-12-07T08:14:37;14.70;;;2.42;;
37063;SDS011;23211;53.912;9.138;2022-12-07T08:17:22;9.07;;;1.63;;
37063;SDS011;23211;53.912;9.138;2022-12-07T08:20:08;13.48;;;1.52;;
37063;SDS011;23211;53.912;9.138;2022-12-07T08:22:54;12.18;;;1.70;;
37063;SDS011;23211;53.912;9.138;2022-12-07T08:25:40;10.50;;;1.40;;
37063;SDS011;23211;53.912;9.138;2022-12-07T08:28:26;11.15;;;1.50;;
37063;SDS011;23211;53.912;9.138;2022-12-07T08:31:14;8.32;;;1.13;;
37063;SDS011;23211;53.912;9.138;2022-12-07T08:34:02;8.10;;;1.23;;
37063;SDS011;23211;53.912;9.138;2022-12-07T08:36:48;5.80;;;1.08;;
37063;SDS011;23211;53.912;9.138;2022-12-07T08:39:33;8.88;;;1.42;;
37063;SDS011;23211;53.912;9.138;2022-12-07T08:42:19;7.72;;;1.35;;
37063;SDS011;23211;53.912;9.138;2022-12-07T08:45:08;6.60;;;1.15;;
37063;SDS011;23211;53.912;9.138;2022-12-07T08:48:01;10.57;;;1.40;;
37063;SDS011;23211;53.912;9.138;2022-12-07T08:50:53;7.70;;;1.40;;
37063;SDS011;23211;53.912;9.138;2022-12-07T08:53:39;5.60;;;1.08;;
37063;SDS011;23211;53.912;9.138;2022-12-07T08:56:26;10.90;;;1.60;;
37063;SDS011;23211;53.912;9.138;2022-12-07T08:59:13;8.57;;;1.25;;
37063;SDS011;23211;53.912;9.138;2022-12-07T09:02:01;9.90;;;1.38;;
37063;SDS011;23211;53.912;9.138;2022-12-07T09:04:47;13.50;;;1.35;;
37063;SDS011;23211;53.912;9.138;2022-12-07T09:07:33;12.77;;;1.20;;
37063;SDS011;23211;53.912;9.138;2022-12-07T09:10:19;13.63;;;1.42;;
37063;SDS011;23211;53.912;9.138;2022-12-07T09:13:05;13.75;;;1.45;;
37063;SDS011;23211;53.912;9.138;2022-12-07T09:15:51;10.30;;;2.38;;
37063;SDS011;23211;53.912;9.138;2022-12-07T09:18:37;10.65;;;1.38;;
37063;SDS011;23211;53.912;9.138;2022-12-07T09:21:23;11.93;;;1.90;;
37063;SDS011;23211;53.912;9.138;2022-12-07T09:24:09;13.45;;;1.50;;
37063;SDS011;23211;53.912;9.138;2022-12-07T09:26:57;15.13;;;2.35;;
37063;SDS011;23211;53.912;9.138;2022-12-07T09:29:43;13.63;;;2.78;;
37063;SDS011;23211;53.912;9.138;2022-12-07T09:32:28;8.90;;;1.38;;
37063;SDS011;23211;53.912;9.138;2022-12-07T09:35:14;15.57;;;1.38;;
37063;SDS011;23211;53.912;9.138;2022-12-07T09:38:00;12.15;;;1.38;;
37063;SDS011;23211;53.912;9.138;2022-12-07T09:40:46;9.77;;;1.10;;
37063;SDS011;23211;53.912;9.138;2022-12-07T09:43:33;8.57;;;1.30;;
37063;SDS011;23211;53.912;9.138;2022-12-07T09:46:21;9.95;;;1.30;;
37063;SDS011;23211;53.912;9.138;2022-12-07T09:49:12;10.57;;;1.30;;
37063;SDS011;23211;53.912;9.138;2022-12-07T09:54:54;6.85;;;1.40;;
37063;SDS011;23211;53.912;9.138;2022-12-07T09:57:40;8.65;;;1.58;;
37063;SDS011;23211;53.912;9.138;2022-12-07T10:00:27;6.13;;;1.42;;
37063;SDS011;23211;53.912;9.138;2022-12-07T10:03:13;11.52;;;1.90;;
37063;SDS011;23211;53.912;9.138;2022-12-07T10:05:59;12.50;;;1.55;;
37063;SDS011;23211;53.912;9.138;2022-12-07T10:08:45;14.93;;;2.20;;
37063;SDS011;23211;53.912;9.138;2022-12-07T10:11:31;16.10;;;3.92;;
37063;SDS011;23211;53.912;9.138;2022-12-07T10:14:17;12.50;;;3.33;;
37063;SDS011;23211;53.912;9.138;2022-12-07T10:17:21;16.80;;;3.42;;
37063;SDS011;23211;53.912;9.138;2022-12-07T10:23:13;9.95;;;2.00;;
37063;SDS011;23211;53.912;9.138;2022-12-07T10:26:18;7.60;;;1.60;;
37063;SDS011;23211;53.912;9.138;2022-12-07T10:38:28;10.18;;;2.03;;
37063;SDS011;23211;53.912;9.138;2022-12-07T10:41:17;14.55;;;2.42;;
37063;SDS011;23211;53.912;9.138;2022-12-07T10:44:04;11.88;;;2.78;;
37063;SDS011;23211;53.912;9.138;2022-12-07T10:56:23;10.82;;;1.85;;
37063;SDS011;23211;53.912;9.138;2022-12-07T11:05:19;12.27;;;1.50;;
37063;SDS011;23211;53.912;9.138;2022-12-07T11:11:35;15.32;;;2.85;;
37063;SDS011;23211;53.912;9.138;2022-12-07T11:17:27;13.37;;;2.50;;
37063;SDS011;23211;53.912;9.138;2022-12-07T11:30:16;10.65;;;1.60;;
37063;SDS011;23211;53.912;9.138;2022-12-07T11:33:15;11.65;;;1.30;;
37063;SDS011;23211;53.912;9.138;2022-12-07T11:39:58;8.48;;;1.40;;
37063;SDS011;23211;53.912;9.138;2022-12-07T11:42:39;10.07;;;1.50;;
37063;SDS011;23211;53.912;9.138;2022-12-07T11:45:32;11.05;;;1.27;;
37063;SDS011;23211;53.912;9.138;2022-12-07T11:48:25;12.20;;;1.25;;
37063;SDS011;23211;53.912;9.138;2022-12-07T11:51:18;9.18;;;1.50;;
37063;SDS011;23211;53.912;9.138;2022-12-07T11:57:33;8.60;;;1.20;;
37063;SDS011;23211;53.912;9.138;2022-12-07T12:00:24;6.32;;;0.90;;
37063;SDS011;23211;53.912;9.138;2022-12-07T12:03:11;11.13;;;1.30;;
37063;SDS011;23211;53.912;9.138;2022-12-07T12:06:01;8.68;;;1.60;;
37063;SDS011;23211;53.912;9.138;2022-12-07T12:08:50;10.48;;;1.45;;
37063;SDS011;23211;53.912;9.138;2022-12-07T12:21:28;6.55;;;1.40;;
37063;SDS011;23211;53.912;9.138;2022-12-07T12:24:16;5.70;;;1.05;;
37063;SDS011;23211;53.912;9.138;2022-12-07T12:27:08;9.38;;;1.65;;
37063;SDS011;23211;53.912;9.138;2022-12-07T12:30:04;9.00;;;1.08;;
37063;SDS011;23211;53.912;9.138;2022-12-07T12:32:52;7.38;;;1.40;;
37063;SDS011;23211;53.912;9.138;2022-12-07T12:36:17;4.95;;;0.90;;
37063;SDS011;23211;53.912;9.138;2022-12-07T12:39:13;6.82;;;0.70;;
37063;SDS011;23211;53.912;9.138;2022-12-07T12:42:01;5.50;;;1.05;;
37063;SDS011;23211;53.912;9.138;2022-12-07T12:45:04;6.30;;;0.95;;
37063;SDS011;23211;53.912;9.138;2022-12-07T12:51:37;4.47;;;0.70;;
37063;SDS011;23211;53.912;9.138;2022-12-07T12:54:28;10.48;;;1.63;;
37063;SDS011;23211;53.912;9.138;2022-12-07T13:03:05;4.68;;;0.85;;
37063;SDS011;23211;53.912;9.138;2022-12-07T13:09:17;7.55;;;1.38;;
37063;SDS011;23211;53.912;9.138;2022-12-07T13:12:15;5.30;;;1.40;;
37063;SDS011;23211;53.912;9.138;2022-12-07T13:15:22;6.47;;;1.40;;
37063;SDS011;23211;53.912;9.138;2022-12-07T13:24:06;7.97;;;2.00;;
37063;SDS011;23211;53.912;9.138;2022-12-07T13:26:55;32.35;;;10.95;;
37063;SDS011;23211;53.912;9.138;2022-12-07T13:29:42;21.08;;;7.05;;
37063;SDS011;23211;53.912;9.138;2022-12-07T13:32:28;47.72;;;14.57;;
37063;SDS011;23211;53.912;9.138;2022-12-07T13:35:34;16.95;;;5.78;;
37063;SDS011;23211;53.912;9.138;2022-12-07T13:38:27;10.50;;;4.35;;
37063;SDS011;23211;53.912;9.138;2022-12-07T13:41:16;10.38;;;1.70;;
37063;SDS011;23211;53.912;9.138;2022-12-07T13:44:14;4.85;;;1.35;;
37063;SDS011;23211;53.912;9.138;2022-12-07T13:47:18;12.38;;;1.42;;
37063;SDS011;23211;53.912;9.138;2022-12-07T13:50:24;4.13;;;0.90;;
37063;SDS011;23211;53.912;9.138;2022-12-07T13:53:16;4.60;;;1.10;;
37063;SDS011;23211;53.912;9.138;2022-12-07T13:56:02;8.30;;;1.05;;
37063;SDS011;23211;53.912;9.138;2022-12-07T13:58:48;7.13;;;0.95;;
37063;SDS011;23211;53.912;9.138;2022-12-07T14:01:34;4.80;;;1.17;;
37063;SDS011;23211;53.912;9.138;2022-12-07T14:04:30;4.00;;;0.68;;
37063;SDS011;23211;53.912;9.138;2022-12-07T14:07:25;6.78;;;1.15;;
37063;SDS011;23211;53.912;9.138;2022-12-07T14:10:26;4.03;;;0.93;;
37063;SDS011;23211;53.912;9.138;2022-12-07T14:16:29;6.28;;;2.38;;
37063;SDS011;23211;53.912;9.138;2022-12-07T14:19:41;4.93;;;1.05;;
37063;SDS011;23211;53.912;9.138;2022-12-07T14:22:28;9.07;;;0.90;;
37063;SDS011;23211;53.912;9.138;2022-12-07T14:25:18;6.78;;;1.40;;
37063;SDS011;23211;53.912;9.138;2022-12-07T14:31:18;6.63;;;1.30;;
37063;SDS011;23211;53.912;9.138;2022-12-07T14:34:12;5.88;;;1.52;;
37063;SDS011;23211;53.912;9.138;2022-12-07T14:36:58;4.13;;;1.10;;
37063;SDS011;23211;53.912;9.138;2022-12-07T14:39:44;6.63;;;2.58;;
37063;SDS011;23211;53.912;9.138;2022-12-07T14:42:30;11.85;;;5.50;;
37063;SDS011;23211;53.912;9.138;2022-12-07T14:45:17;5.72;;;3.38;;
37063;SDS011;23211;53.912;9.138;2022-12-07T14:48:05;5.13;;;1.42;;
37063;SDS011;23211;53.912;9.138;2022-12-07T14:50:56;5.60;;;1.80;;
37063;SDS011;23211;53.912;9.138;2022-12-07T14:53:48;8.07;;;2.25;;
37063;SDS011;23211;53.912;9.138;2022-12-07T14:56:37;8.27;;;2.30;;
37063;SDS011;23211;53.912;9.138;2022-12-07T14:59:23;6.28;;;2.00;;
37063;SDS011;23211;53.912;9.138;2022-12-07T15:02:09;6.75;;;2.03;;
37063;SDS011;23211;53.912;9.138;2022-12-07T15:04:57;4.60;;;1.58;;
37063;SDS011;23211;53.912;9.138;2022-12-07T15:07:43;2.63;;;1.25;;
37063;SDS011;23211;53.912;9.138;2022-12-07T15:10:32;7.03;;;1.60;;
37063;SDS011;23211;53.912;9.138;2022-12-07T15:16:11;5.68;;;1.52;;
37063;SDS011;23211;53.912;9.138;2022-12-07T15:19:02;2.90;;;1.15;;
37063;SDS011;23211;53.912;9.138;2022-12-07T15:21:48;9.13;;;1.98;;
37063;SDS011;23211;53.912;9.138;2022-12-07T15:24:34;6.30;;;1.92;;
37063;SDS011;23211;53.912;9.138;2022-12-07T15:27:20;5.03;;;1.88;;
37063;SDS011;23211;53.912;9.138;2022-12-07T15:30:06;11.38;;;2.92;;
37063;SDS011;23211;53.912;9.138;2022-12-07T15:32:52;11.02;;;2.30;;
37063;SDS011;23211;53.912;9.138;2022-12-07T15:35:39;7.35;;;1.98;;
37063;SDS011;23211;53.912;9.138;2022-12-07T15:38:26;6.13;;;1.70;;
37063;SDS011;23211;53.912;9.138;2022-12-07T15:41:14;5.40;;;1.85;;
37063;SDS011;23211;53.912;9.138;2022-12-07T15:44:00;5.68;;;2.10;;
37063;SDS011;23211;53.912;9.138;2022-12-07T15:47:04;7.90;;;2.05;;
37063;SDS011;23211;53.912;9.138;2022-12-07T15:49:50;5.28;;;2.22;;
37063;SDS011;23211;53.912;9.138;2022-12-07T15:52:36;6.20;;;2.78;;
37063;SDS011;23211;53.912;9.138;2022-12-07T15:55:22;6.03;;;2.67;;
37063;SDS011;23211;53.912;9.138;2022-12-07T15:58:08;8.82;;;2.65;;
37063;SDS011;23211;53.912;9.138;2022-12-07T16:00:54;11.13;;;4.45;;
37063;SDS011;23211;53.912;9.138;2022-12-07T16:03:40;15.55;;;6.15;;
37063;SDS011;23211;53.912;9.138;2022-12-07T16:06:26;15.10;;;5.93;;
37063;SDS011;23211;53.912;9.138;2022-12-07T16:09:12;14.95;;;6.82;;
37063;SDS011;23211;53.912;9.138;2022-12-07T16:11:58;10.57;;;5.65;;
37063;SDS011;23211;53.912;9.138;2022-12-07T16:14:44;14.40;;;6.13;;
37063;SDS011;23211;53.912;9.138;2022-12-07T16:17:30;13.95;;;6.38;;
37063;SDS011;23211;53.912;9.138;2022-12-07T16:20:17;15.93;;;6.45;;
37063;SDS011;23211;53.912;9.138;2022-12-07T16:23:03;10.57;;;5.93;;
37063;SDS011;23211;53.912;9.138;2022-12-07T16:25:49;12.30;;;6.10;;
37063;SDS011;23211;53.912;9.138;2022-12-07T16:28:35;17.42;;;7.70;;
37063;SDS011;23211;53.912;9.138;2022-12-07T16:31:21;19.48;;;7.10;;
37063;SDS011;23211;53.912;9.138;2022-12-07T16:34:10;15.40;;;8.30;;
37063;SDS011;23211;53.912;9.138;2022-12-07T16:36:55;16.95;;;8.88;;
37063;SDS011;23211;53.912;9.138;2022-12-07T16:39:41;21.48;;;10.75;;
37063;SDS011;23211;53.912;9.138;2022-12-07T16:42:30;18.98;;;9.65;;
37063;SDS011;23211;53.912;9.138;2022-12-07T16:45:17;21.98;;;9.52;;
37063;SDS011;23211;53.912;9.138;2022-12-07T16:48:03;23.25;;;9.57;;
37063;SDS011;23211;53.912;9.138;2022-12-07T16:50:49;26.77;;;11.98;;
37063;SDS011;23211;53.912;9.138;2022-12-07T16:53:35;28.02;;;12.63;;
37063;SDS011;23211;53.912;9.138;2022-12-07T16:56:22;24.73;;;13.02;;
37063;SDS011;23211;53.912;9.138;2022-12-07T16:59:09;27.55;;;13.40;;
37063;SDS011;23211;53.912;9.138;2022-12-07T17:01:55;21.95;;;12.90;;
37063;SDS011;23211;53.912;9.138;2022-12-07T17:04:41;26.15;;;11.35;;
37063;SDS011;23211;53.912;9.138;2022-12-07T17:07:27;24.23;;;11.68;;
37063;SDS011;23211;53.912;9.138;2022-12-07T17:10:13;26.20;;;12.55;;
37063;SDS011;23211;53.912;9.138;2022-12-07T17:12:59;31.20;;;11.93;;
37063;SDS011;23211;53.912;9.138;2022-12-07T17:15:53;25.45;;;11.93;;
37063;SDS011;23211;53.912;9.138;2022-12-07T17:18:57;22.58;;;10.50;;
37063;SDS011;23211;53.912;9.138;2022-12-07T17:21:44;19.90;;;10.00;;
37063;SDS011;23211;53.912;9.138;2022-12-07T17:24:31;25.77;;;10.70;;
37063;SDS011;23211;53.912;9.138;2022-12-07T17:27:16;23.48;;;12.82;;
37063;SDS011;23211;53.912;9.138;2022-12-07T17:30:03;23.40;;;12.82;;
37063;SDS011;23211;53.912;9.138;2022-12-07T17:32:51;22.77;;;12.32;;
37063;SDS011;23211;53.912;9.138;2022-12-07T17:35:37;31.80;;;15.63;;
37063;SDS011;23211;53.912;9.138;2022-12-07T17:38:23;33.30;;;15.77;;
37063;SDS011;23211;53.912;9.138;2022-12-07T17:41:09;26.20;;;12.73;;
37063;SDS011;23211;53.912;9.138;2022-12-07T17:43:57;22.73;;;9.50;;
37063;SDS011;23211;53.912;9.138;2022-12-07T17:46:43;19.90;;;8.77;;
37063;SDS011;23211;53.912;9.138;2022-12-07T17:49:29;22.20;;;9.57;;
37063;SDS011;23211;53.912;9.138;2022-12-07T17:52:15;18.67;;;9.20;;
37063;SDS011;23211;53.912;9.138;2022-12-07T17:55:20;24.48;;;9.50;;
37063;SDS011;23211;53.912;9.138;2022-12-07T17:58:06;20.85;;;9.75;;
37063;SDS011;23211;53.912;9.138;2022-12-07T18:00:52;20.92;;;12.52;;
37063;SDS011;23211;53.912;9.138;2022-12-07T18:03:37;12.57;;;7.70;;
37063;SDS011;23211;53.912;9.138;2022-12-07T18:06:23;10.70;;;5.40;;
37063;SDS011;23211;53.912;9.138;2022-12-07T18:09:09;12.63;;;4.82;;
37063;SDS011;23211;53.912;9.138;2022-12-07T18:11:55;6.80;;;2.88;;
37063;SDS011;23211;53.912;9.138;2022-12-07T18:14:41;10.93;;;3.90;;
37063;SDS011;23211;53.912;9.138;2022-12-07T18:17:27;13.05;;;3.83;;
37063;SDS011;23211;53.912;9.138;2022-12-07T18:20:13;75.22;;;31.23;;
37063;SDS011;23211;53.912;9.138;2022-12-07T18:22:59;36.20;;;19.38;;
37063;SDS011;23211;53.912;9.138;2022-12-07T18:25:51;16.50;;;7.60;;
37063;SDS011;23211;53.912;9.138;2022-12-07T18:28:37;12.98;;;5.53;;
37063;SDS011;23211;53.912;9.138;2022-12-07T18:31:23;14.73;;;4.78;;
37063;SDS011;23211;53.912;9.138;2022-12-07T18:34:13;9.38;;;3.42;;
37063;SDS011;23211;53.912;9.138;2022-12-07T18:37:00;10.77;;;3.20;;
37063;SDS011;23211;53.912;9.138;2022-12-07T18:39:46;5.82;;;2.50;;
37063;SDS011;23211;53.912;9.138;2022-12-07T18:42:33;12.05;;;2.90;;